Time;durP1;ratioP1;P1;durP2;ratioP2;P2;SDS_P1;SDS_P2;PMS_P1;PMS_P2;Temp;Humidity;BMP_temperature;BMP_pressure;BME280_temperature;BME280_humidity;BME280_pressure;Samples;Min_cycle;Max_cycle;Signal;HPM_P1;HPM_P2
2023/12/18 00:01:47;;;;;;;6.40;5.80;;;;;;;;;;5054364;28;20207;-82
2023/12/18 00:04:15;;;;;;;5.13;4.55;;;;;;;;;;5054749;28;20207;-82
2023/12/18 00:06:43;;;;;;;5.00;4.60;;;;;;;;;;5055217;28;20224;-81
2023/12/18 00:09:10;;;;;;;5.20;4.13;;;;;;;;;;5054908;28;20284;-82
2023/12/18 00:11:38;;;;;;;5.90;5.30;;;;;;;;;;5054790;28;20194;-81
2023/12/18 00:14:05;;;;;;;5.97;5.05;;;;;;;;;;5054792;28;20205;-82
2023/12/18 00:16:32;;;;;;;7.97;5.57;;;;;;;;;;5055212;28;20324;-82
2023/12/18 00:19:00;;;;;;;6.10;5.20;;;;;;;;;;5055027;28;20197;-82
2023/12/18 00:21:29;;;;;;;4.60;4.00;;;;;;;;;;5054682;28;20686;-82
2023/12/18 00:23:57;;;;;;;7.93;6.32;;;;;;;;;;5054577;28;20296;-81
2023/12/18 00:26:24;;;;;;;6.07;5.28;;;;;;;;;;5054327;28;20201;-82
2023/12/18 00:28:51;;;;;;;5.75;4.93;;;;;;;;;;5055296;28;20235;-82
2023/12/18 00:31:19;;;;;;;7.90;5.93;;;;;;;;;;5055025;28;20200;-80
2023/12/18 00:33:46;;;;;;;5.63;5.13;;;;;;;;;;5054032;28;20206;-82
2023/12/18 00:36:14;;;;;;;7.63;5.40;;;;;;;;;;5054678;28;20578;-80
2023/12/18 00:38:42;;;;;;;5.75;4.90;;;;;;;;;;5055186;28;20296;-81
2023/12/18 00:41:10;;;;;;;7.55;5.10;;;;;;;;;;5054944;28;20694;-81
2023/12/18 00:43:38;;;;;;;7.40;6.18;;;;;;;;;;5054672;28;20205;-82
2023/12/18 00:46:06;;;;;;;5.95;4.88;;;;;;;;;;5055024;28;20204;-81
2023/12/18 00:48:33;;;;;;;7.93;5.70;;;;;;;;;;5054870;28;20221;-81
2023/12/18 00:51:01;;;;;;;5.85;5.15;;;;;;;;;;5055159;28;20194;-83
2023/12/18 00:53:28;;;;;;;7.13;5.38;;;;;;;;;;5058386;28;20292;-83
2023/12/18 00:55:57;;;;;;;6.75;5.10;;;;;;;;;;5058268;28;20693;-81
2023/12/18 00:58:24;;;;;;;4.97;4.57;;;;;;;;;;5058893;28;20308;-81
2023/12/18 01:00:52;;;;;;;7.72;6.55;;;;;;;;;;5058515;28;20227;-81
2023/12/18 01:03:19;;;;;;;6.95;5.20;;;;;;;;;;5057970;28;20212;-82
2023/12/18 01:05:46;;;;;;;9.13;6.85;;;;;;;;;;5058430;28;20569;-82
2023/12/18 01:08:14;;;;;;;6.93;6.18;;;;;;;;;;5057954;28;20734;-80
2023/12/18 01:10:41;;;;;;;6.85;6.05;;;;;;;;;;5057852;28;20198;-80
2023/12/18 01:13:10;;;;;;;6.00;5.38;;;;;;;;;;5057796;28;20204;-82
2023/12/18 01:15:38;;;;;;;6.32;5.47;;;;;;;;;;5057799;28;20209;-81
2023/12/18 01:18:05;;;;;;;9.20;6.03;;;;;;;;;;5057900;28;20225;-82
2023/12/18 01:20:33;;;;;;;7.90;6.57;;;;;;;;;;5057864;28;20651;-82
2023/12/18 01:23:00;;;;;;;8.65;6.25;;;;;;;;;;5057426;28;20201;-82
2023/12/18 01:25:28;;;;;;;7.13;6.38;;;;;;;;;;5057877;28;20569;-81
2023/12/18 01:27:55;;;;;;;8.52;6.60;;;;;;;;;;5057280;28;20380;-82
2023/12/18 01:30:24;;;;;;;12.13;7.53;;;;;;;;;;5058008;28;20202;-82
2023/12/18 01:32:51;;;;;;;7.30;6.20;;;;;;;;;;5058351;28;20197;-83
2023/12/18 01:35:19;;;;;;;6.32;4.95;;;;;;;;;;5057205;28;20201;-82
2023/12/18 01:37:47;;;;;;;7.93;6.22;;;;;;;;;;5057601;28;20657;-82
2023/12/18 01:40:14;;;;;;;9.10;6.15;;;;;;;;;;5057616;28;20202;-81
2023/12/18 01:42:45;;;;;;;7.95;6.57;;;;;;;;;;5057308;28;20206;-82
2023/12/18 01:45:12;;;;;;;8.27;6.30;;;;;;;;;;5057217;28;20237;-81
2023/12/18 01:47:41;;;;;;;6.55;4.80;;;;;;;;;;5057605;28;20239;-81
2023/12/18 01:50:09;;;;;;;7.57;6.10;;;;;;;;;;5057410;28;20198;-82
2023/12/18 01:52:38;;;;;;;5.63;4.78;;;;;;;;;;5057117;28;20635;-82
2023/12/18 01:55:06;;;;;;;8.35;6.53;;;;;;;;;;5057254;28;20211;-82
2023/12/18 01:57:34;;;;;;;7.68;6.85;;;;;;;;;;5056738;28;20321;-81
2023/12/18 02:00:01;;;;;;;5.65;5.13;;;;;;;;;;5057479;28;20201;-81
2023/12/18 02:02:29;;;;;;;9.38;7.07;;;;;;;;;;5056461;28;20228;-82
2023/12/18 02:04:58;;;;;;;5.25;4.70;;;;;;;;;;5056540;28;20208;-80
2023/12/18 02:07:26;;;;;;;10.07;8.05;;;;;;;;;;5057039;28;20224;-82
2023/12/18 02:09:53;;;;;;;7.20;6.20;;;;;;;;;;5057899;28;20275;-82
2023/12/18 02:12:21;;;;;;;6.43;5.53;;;;;;;;;;5056905;28;20208;-82
2023/12/18 02:14:48;;;;;;;9.43;7.18;;;;;;;;;;5057446;28;20599;-82
2023/12/18 02:17:16;;;;;;;8.48;7.07;;;;;;;;;;5056693;28;20233;-82
2023/12/18 02:19:43;;;;;;;6.80;5.45;;;;;;;;;;5056538;28;20224;-81
2023/12/18 02:22:12;;;;;;;8.18;6.45;;;;;;;;;;5056263;28;20228;-81
2023/12/18 02:24:41;;;;;;;7.60;6.38;;;;;;;;;;5056731;28;20209;-82
2023/12/18 02:27:08;;;;;;;8.68;6.07;;;;;;;;;;5056683;28;20585;-82
2023/12/18 02:29:35;;;;;;;9.18;7.25;;;;;;;;;;5056845;28;20292;-82
2023/12/18 02:32:03;;;;;;;8.90;7.28;;;;;;;;;;5056423;28;20288;-81
2023/12/18 02:34:31;;;;;;;9.35;7.65;;;;;;;;;;5056797;28;20202;-81
2023/12/18 02:36:58;;;;;;;9.63;7.70;;;;;;;;;;5056347;28;20632;-82
2023/12/18 02:39:25;;;;;;;8.73;6.70;;;;;;;;;;5055939;28;20198;-81
2023/12/18 02:41:54;;;;;;;7.50;6.38;;;;;;;;;;5056534;28;20221;-82
2023/12/18 02:44:22;;;;;;;5.80;4.60;;;;;;;;;;5056867;28;20202;-83
2023/12/18 02:46:49;;;;;;;5.55;4.95;;;;;;;;;;5056111;28;20602;-82
2023/12/18 02:49:17;;;;;;;6.10;5.30;;;;;;;;;;5056330;28;20206;-82
2023/12/18 02:51:44;;;;;;;5.57;5.00;;;;;;;;;;5056585;28;20202;-82
2023/12/18 02:54:11;;;;;;;6.68;6.07;;;;;;;;;;5056891;28;20255;-82
2023/12/18 02:56:39;;;;;;;5.07;4.35;;;;;;;;;;5056407;28;20650;-81
2023/12/18 02:59:08;;;;;;;4.82;4.43;;;;;;;;;;5056401;28;20287;-82
2023/12/18 03:01:35;;;;;;;4.28;3.75;;;;;;;;;;5056687;28;20693;-80
2023/12/18 03:04:03;;;;;;;4.05;3.70;;;;;;;;;;5055837;28;20202;-82
2023/12/18 03:06:30;;;;;;;6.30;4.88;;;;;;;;;;5056162;28;20212;-82
2023/12/18 03:08:58;;;;;;;5.30;4.63;;;;;;;;;;5056202;28;20207;-81
2023/12/18 03:11:25;;;;;;;5.57;5.00;;;;;;;;;;5056389;28;20204;-82
2023/12/18 03:13:52;;;;;;;5.25;4.75;;;;;;;;;;5056348;28;20202;-82
2023/12/18 03:16:21;;;;;;;4.68;4.25;;;;;;;;;;5056062;28;20213;-82
2023/12/18 03:18:49;;;;;;;6.03;5.43;;;;;;;;;;5056235;28;20208;-82
2023/12/18 03:21:17;;;;;;;7.88;6.55;;;;;;;;;;5056292;28;20209;-82
2023/12/18 03:23:44;;;;;;;6.03;5.38;;;;;;;;;;5056296;28;20678;-81
2023/12/18 03:26:11;;;;;;;7.32;6.30;;;;;;;;;;5056329;28;20293;-80
2023/12/18 03:28:39;;;;;;;7.65;6.63;;;;;;;;;;5056685;28;20202;-82
2023/12/18 03:31:06;;;;;;;7.13;6.43;;;;;;;;;;5056352;28;20205;-82
2023/12/18 03:33:35;;;;;;;7.38;6.28;;;;;;;;;;5056053;28;20288;-82
2023/12/18 03:36:03;;;;;;;4.68;4.28;;;;;;;;;;5056597;28;20198;-82
2023/12/18 03:38:30;;;;;;;7.80;5.65;;;;;;;;;;5055768;28;20222;-82
2023/12/18 03:40:57;;;;;;;7.57;6.18;;;;;;;;;;5056479;28;20603;-83
2023/12/18 03:43:25;;;;;;;7.65;6.65;;;;;;;;;;5055767;28;20225;-82
2023/12/18 03:45:53;;;;;;;7.78;6.18;;;;;;;;;;5056227;28;20219;-82
2023/12/18 03:48:20;;;;;;;7.50;6.30;;;;;;;;;;5055838;28;20308;-82
2023/12/18 03:50:49;;;;;;;6.72;6.13;;;;;;;;;;5056876;28;20704;-83
2023/12/18 03:53:16;;;;;;;7.10;5.68;;;;;;;;;;5056058;28;20200;-82
2023/12/18 03:55:44;;;;;;;5.57;4.82;;;;;;;;;;5056397;28;20277;-80
2023/12/18 03:58:11;;;;;;;7.40;5.43;;;;;;;;;;5056754;28;20228;-82
2023/12/18 04:00:39;;;;;;;7.88;6.22;;;;;;;;;;5056649;28;20202;-82
2023/12/18 04:03:07;;;;;;;6.18;5.50;;;;;;;;;;5056302;28;20222;-82
2023/12/18 04:05:34;;;;;;;6.63;5.18;;;;;;;;;;5055816;28;20197;-80
2023/12/18 04:08:03;;;;;;;4.97;4.55;;;;;;;;;;5056402;28;20222;-82
2023/12/18 04:10:31;;;;;;;4.78;4.25;;;;;;;;;;5055964;28;20265;-81
2023/12/18 04:12:58;;;;;;;5.65;4.88;;;;;;;;;;5056216;28;20204;-81
2023/12/18 04:15:26;;;;;;;4.63;4.22;;;;;;;;;;5056474;28;20214;-83
2023/12/18 04:17:55;;;;;;;5.45;4.57;;;;;;;;;;5056283;28;20222;-82
2023/12/18 04:20:22;;;;;;;3.80;3.50;;;;;;;;;;5056225;28;20201;-80
2023/12/18 04:22:50;;;;;;;4.95;4.43;;;;;;;;;;5055907;28;20308;-82
2023/12/18 04:25:19;;;;;;;5.60;4.60;;;;;;;;;;5056367;28;20701;-83
2023/12/18 04:27:46;;;;;;;5.63;4.85;;;;;;;;;;5059310;28;20938;-83
2023/12/18 04:30:14;;;;;;;3.85;3.55;;;;;;;;;;5060144;28;20203;-82
2023/12/18 04:32:42;;;;;;;5.38;4.18;;;;;;;;;;5059497;28;20403;-82
2023/12/18 04:35:09;;;;;;;4.38;3.95;;;;;;;;;;5060250;28;20662;-82
2023/12/18 04:37:37;;;;;;;7.35;5.63;;;;;;;;;;5059643;28;20224;-81
2023/12/18 04:40:05;;;;;;;6.38;5.25;;;;;;;;;;5059948;28;20208;-82
2023/12/18 04:42:34;;;;;;;7.30;6.35;;;;;;;;;;5060027;28;20229;-80
2023/12/18 04:45:02;;;;;;;9.77;7.13;;;;;;;;;;5059085;28;20665;-83
2023/12/18 04:47:29;;;;;;;6.30;5.70;;;;;;;;;;5058837;28;20280;-82
2023/12/18 04:49:57;;;;;;;7.15;6.00;;;;;;;;;;5059010;28;20677;-82
2023/12/18 04:52:24;;;;;;;7.60;6.35;;;;;;;;;;5059220;28;20203;-82
2023/12/18 04:54:53;;;;;;;6.20;4.95;;;;;;;;;;5059250;28;20213;-81
2023/12/18 04:57:20;;;;;;;9.50;7.55;;;;;;;;;;5058482;28;20755;-82
2023/12/18 04:59:49;;;;;;;11.55;8.23;;;;;;;;;;5056661;28;20201;-81
2023/12/18 05:02:17;;;;;;;8.48;7.10;;;;;;;;;;5057418;28;20212;-82
2023/12/18 05:04:44;;;;;;;10.80;7.93;;;;;;;;;;5056696;28;20288;-81
2023/12/18 05:07:12;;;;;;;9.68;7.35;;;;;;;;;;5057085;28;20328;-81
2023/12/18 05:09:40;;;;;;;9.02;6.22;;;;;;;;;;5057233;28;20293;-82
2023/12/18 05:12:08;;;;;;;6.68;6.03;;;;;;;;;;5056906;28;20209;-80
2023/12/18 05:14:36;;;;;;;7.88;5.80;;;;;;;;;;5056782;28;20204;-80
2023/12/18 05:17:05;;;;;;;7.55;6.20;;;;;;;;;;5056594;28;20233;-80
2023/12/18 05:19:32;;;;;;;6.30;5.43;;;;;;;;;;5056633;28;20289;-80
2023/12/18 05:22:00;;;;;;;5.40;4.78;;;;;;;;;;5056354;28;20681;-81
2023/12/18 05:24:27;;;;;;;5.10;4.53;;;;;;;;;;5056343;28;20351;-80
2023/12/18 05:26:55;;;;;;;5.20;4.60;;;;;;;;;;5056320;28;20240;-81
2023/12/18 05:29:22;;;;;;;7.90;6.85;;;;;;;;;;5056569;28;20573;-78
2023/12/18 05:31:50;;;;;;;4.60;3.95;;;;;;;;;;5056768;28;20201;-79
2023/12/18 05:34:18;;;;;;;5.55;4.70;;;;;;;;;;5056354;28;20194;-82
2023/12/18 05:36:46;;;;;;;6.43;5.65;;;;;;;;;;5056387;28;20228;-79
2023/12/18 05:39:13;;;;;;;4.75;4.18;;;;;;;;;;5056632;28;20209;-78
2023/12/18 05:41:41;;;;;;;6.35;4.20;;;;;;;;;;5055887;28;20220;-81
2023/12/18 05:44:08;;;;;;;8.18;6.18;;;;;;;;;;5055892;28;20232;-81
2023/12/18 05:46:35;;;;;;;7.78;6.57;;;;;;;;;;5056030;28;20313;-80
2023/12/18 05:49:03;;;;;;;6.97;5.88;;;;;;;;;;5056456;28;20658;-81
2023/12/18 05:51:32;;;;;;;6.28;5.50;;;;;;;;;;5056148;28;20208;-81
2023/12/18 05:53:59;;;;;;;5.82;5.00;;;;;;;;;;5056284;28;20194;-82
2023/12/18 05:56:26;;;;;;;5.75;5.05;;;;;;;;;;5056446;28;20202;-82
2023/12/18 05:58:55;;;;;;;6.35;5.18;;;;;;;;;;5055879;28;20215;-81
2023/12/18 06:01:23;;;;;;;5.53;4.25;;;;;;;;;;5056292;28;20297;-82
2023/12/18 06:03:50;;;;;;;6.25;4.97;;;;;;;;;;5055662;28;20604;-79
2023/12/18 06:06:18;;;;;;;6.50;5.43;;;;;;;;;;5054894;28;20198;-81
2023/12/18 06:08:47;;;;;;;6.75;5.50;;;;;;;;;;5055717;28;20670;-81
2023/12/18 06:11:15;;;;;;;5.80;5.10;;;;;;;;;;5056112;28;20309;-79
2023/12/18 06:13:43;;;;;;;7.20;5.68;;;;;;;;;;5055621;28;20194;-79
2023/12/18 06:16:10;;;;;;;6.00;5.35;;;;;;;;;;5054954;28;20297;-79
2023/12/18 06:18:38;;;;;;;6.35;5.65;;;;;;;;;;5055309;28;20313;-82
2023/12/18 06:21:06;;;;;;;5.30;4.80;;;;;;;;;;5055291;28;20296;-82
2023/12/18 06:23:34;;;;;;;6.35;5.57;;;;;;;;;;5054936;28;20308;-81
2023/12/18 06:26:04;;;;;;;7.35;5.63;;;;;;;;;;5054816;28;20294;-81
2023/12/18 06:28:31;;;;;;;7.43;6.45;;;;;;;;;;5055605;28;20307;-81
2023/12/18 06:30:59;;;;;;;6.47;5.78;;;;;;;;;;5055277;28;20204;-81
2023/12/18 06:33:27;;;;;;;8.00;6.03;;;;;;;;;;5054943;28;20198;-80
2023/12/18 06:35:54;;;;;;;6.60;5.90;;;;;;;;;;5055513;28;20214;-82
2023/12/18 06:38:22;;;;;;;8.07;6.45;;;;;;;;;;5055271;28;20264;-82
2023/12/18 06:40:49;;;;;;;7.30;6.60;;;;;;;;;;5055728;28;20208;-80
2023/12/18 06:43:18;;;;;;;9.20;7.18;;;;;;;;;;5055802;28;20197;-80
2023/12/18 06:45:45;;;;;;;7.38;6.10;;;;;;;;;;5055158;28;20707;-81
2023/12/18 06:48:13;;;;;;;7.07;6.00;;;;;;;;;;5054660;28;20221;-81
2023/12/18 06:50:40;;;;;;;8.07;7.18;;;;;;;;;;5054200;28;20233;-81
2023/12/18 06:53:08;;;;;;;8.05;5.53;;;;;;;;;;5054295;28;20207;-81
2023/12/18 06:55:35;;;;;;;8.27;5.90;;;;;;;;;;5054922;28;20198;-80
2023/12/18 06:58:03;;;;;;;5.45;4.47;;;;;;;;;;5054888;28;20304;-82
2023/12/18 07:00:31;;;;;;;5.32;4.82;;;;;;;;;;5054554;28;20207;-81
2023/12/18 07:02:59;;;;;;;4.55;3.95;;;;;;;;;;5054467;28;20198;-80
2023/12/18 07:05:29;;;;;;;6.18;4.93;;;;;;;;;;5054853;28;20222;-82
2023/12/18 07:07:56;;;;;;;4.40;4.00;;;;;;;;;;5054836;28;20225;-81
2023/12/18 07:10:24;;;;;;;5.93;5.32;;;;;;;;;;5054534;28;20272;-81
2023/12/18 07:12:51;;;;;;;5.97;5.38;;;;;;;;;;5054721;28;20197;-80
2023/12/18 07:15:20;;;;;;;7.32;5.30;;;;;;;;;;5054334;28;20204;-82
2023/12/18 07:17:49;;;;;;;4.95;4.45;;;;;;;;;;5054674;28;20226;-80
2023/12/18 07:20:17;;;;;;;6.97;5.10;;;;;;;;;;5054122;28;20662;-80
2023/12/18 07:22:44;;;;;;;9.18;5.25;;;;;;;;;;5054583;28;20201;-80
2023/12/18 07:25:12;;;;;;;4.60;4.20;;;;;;;;;;5054544;28;20232;-82
2023/12/18 07:27:39;;;;;;;5.63;5.07;;;;;;;;;;5054635;28;20223;-80
2023/12/18 07:30:08;;;;;;;5.13;4.68;;;;;;;;;;5056789;28;20202;-81
2023/12/18 07:32:36;;;;;;;2.92;2.72;;;;;;;;;;5059388;28;20205;-82
2023/12/18 07:35:07;;;;;;;4.32;3.80;;;;;;;;;;5053706;28;20225;-80
2023/12/18 07:37:34;;;;;;;4.47;4.15;;;;;;;;;;5062280;28;20217;-82
2023/12/18 07:40:03;;;;;;;5.05;4.20;;;;;;;;;;5057252;28;20201;-82
2023/12/18 07:42:30;;;;;;;4.10;3.70;;;;;;;;;;5059101;28;20212;-81
2023/12/18 07:44:59;;;;;;;4.13;3.72;;;;;;;;;;5073028;28;20280;-80
2023/12/18 07:47:27;;;;;;;4.10;3.80;;;;;;;;;;5072672;28;20260;-79
2023/12/18 07:50:23;;;;;;;5.45;4.95;;;;;;;;;;5074343;28;20205;-80
2023/12/18 07:53:09;;;;;;;4.38;3.97;;;;;;;;;;5082524;28;20229;-81
2023/12/18 07:56:12;;;;;;;3.78;3.47;;;;;;;;;;5073222;28;20192;-81
2023/12/18 08:02:34;;;;;;;5.35;4.85;;;;;;;;;;5032476;28;20210;-79
2023/12/18 08:05:36;;;;;;;4.00;3.70;;;;;;;;;;5063601;28;20218;-80
2023/12/18 08:08:28;;;;;;;4.70;4.28;;;;;;;;;;5049512;28;20289;-79
2023/12/18 08:17:15;;;;;;;4.05;3.70;;;;;;;;;;5076973;28;20280;-78
2023/12/18 08:26:29;;;;;;;4.57;4.15;;;;;;;;;;5068661;28;20218;-80
2023/12/18 08:29:00;;;;;;;4.82;4.43;;;;;;;;;;5076704;28;20215;-79
2023/12/18 08:31:28;;;;;;;3.80;3.50;;;;;;;;;;5076107;28;20265;-80
2023/12/18 08:37:23;;;;;;;4.65;4.15;;;;;;;;;;5074890;28;20233;-79
2023/12/18 08:39:59;;;;;;;3.72;3.33;;;;;;;;;;5077880;28;20253;-82
2023/12/18 08:42:39;;;;;;;4.32;3.92;;;;;;;;;;5080345;28;20231;-81
2023/12/18 08:48:42;;;;;;;4.40;4.00;;;;;;;;;;5072680;28;20210;-80
2023/12/18 08:51:09;;;;;;;4.57;4.18;;;;;;;;;;5067562;28;20210;-81
2023/12/18 08:53:37;;;;;;;4.78;4.38;;;;;;;;;;5062759;28;20682;-81
2023/12/18 08:56:06;;;;;;;4.85;4.28;;;;;;;;;;5064093;28;20292;-80
2023/12/18 08:58:35;;;;;;;3.95;3.60;;;;;;;;;;5064061;28;20308;-80
2023/12/18 09:01:02;;;;;;;5.53;5.03;;;;;;;;;;5064249;28;20269;-81
2023/12/18 09:03:35;;;;;;;5.05;4.55;;;;;;;;;;5064092;28;20624;-80
2023/12/18 09:06:03;;;;;;;4.63;4.22;;;;;;;;;;5064051;28;20693;-80
2023/12/18 09:08:36;;;;;;;3.80;3.50;;;;;;;;;;5064175;28;20232;-80
2023/12/18 09:11:03;;;;;;;3.92;3.53;;;;;;;;;;5064479;28;20211;-80
2023/12/18 09:13:31;;;;;;;4.07;3.67;;;;;;;;;;5063488;28;20212;-81
2023/12/18 09:16:00;;;;;;;3.85;3.47;;;;;;;;;;5063710;28;20206;-79
2023/12/18 09:18:27;;;;;;;4.00;3.60;;;;;;;;;;5063667;28;20241;-80
2023/12/18 09:20:54;;;;;;;5.03;4.55;;;;;;;;;;5064426;28;20241;-81
2023/12/18 09:23:22;;;;;;;3.72;3.42;;;;;;;;;;5063884;28;20201;-79
2023/12/18 09:25:49;;;;;;;4.95;4.40;;;;;;;;;;5064059;28;20225;-80
2023/12/18 09:28:17;;;;;;;4.93;4.43;;;;;;;;;;5063970;28;20637;-80
2023/12/18 09:30:44;;;;;;;4.55;4.15;;;;;;;;;;5063551;28;20229;-79
2023/12/18 09:33:13;;;;;;;4.93;4.43;;;;;;;;;;5062639;28;20233;-79
2023/12/18 09:35:41;;;;;;;5.82;5.03;;;;;;;;;;5062771;28;20289;-80
2023/12/18 09:38:08;;;;;;;4.72;4.22;;;;;;;;;;5062875;28;20227;-80
2023/12/18 09:40:36;;;;;;;4.43;4.13;;;;;;;;;;5063513;28;20203;-79
2023/12/18 09:43:04;;;;;;;5.00;4.10;;;;;;;;;;5059391;28;20574;-80
2023/12/18 09:45:32;;;;;;;5.25;4.75;;;;;;;;;;5043387;28;20226;-80
2023/12/18 09:48:00;;;;;;;4.97;4.10;;;;;;;;;;5043314;28;20760;-80
2023/12/18 09:50:29;;;;;;;4.28;3.78;;;;;;;;;;5043790;28;20722;-81
2023/12/18 09:53:07;;;;;;;4.03;3.63;;;;;;;;;;5042317;28;20294;-81
2023/12/18 09:55:35;;;;;;;5.38;4.88;;;;;;;;;;5042738;28;20186;-80
2023/12/18 09:58:03;;;;;;;4.53;4.13;;;;;;;;;;5042223;28;20218;-81
2023/12/18 10:00:30;;;;;;;5.30;4.70;;;;;;;;;;5042797;28;20209;-81
2023/12/18 10:03:00;;;;;;;4.80;4.25;;;;;;;;;;5042348;28;20199;-79
2023/12/18 10:05:29;;;;;;;5.32;4.80;;;;;;;;;;5042759;28;20222;-81
2023/12/18 10:07:59;;;;;;;4.95;4.55;;;;;;;;;;5042042;28;20590;-80
2023/12/18 10:10:27;;;;;;;4.78;4.38;;;;;;;;;;5041839;28;20271;-81
2023/12/18 10:12:55;;;;;;;4.90;4.35;;;;;;;;;;5041514;28;20213;-78
2023/12/18 10:15:23;;;;;;;4.78;4.30;;;;;;;;;;5041321;28;20260;-81
2023/12/18 10:17:51;;;;;;;6.75;4.65;;;;;;;;;;5042275;28;20236;-81
2023/12/18 10:20:18;;;;;;;6.85;4.85;;;;;;;;;;5041082;28;20232;-80
2023/12/18 10:22:47;;;;;;;4.80;4.35;;;;;;;;;;5041774;28;20726;-81
2023/12/18 10:25:16;;;;;;;5.60;4.80;;;;;;;;;;5040307;28;20204;-81
2023/12/18 10:27:43;;;;;;;4.78;4.38;;;;;;;;;;5040936;28;20215;-81
2023/12/18 10:30:13;;;;;;;5.70;4.47;;;;;;;;;;5041680;28;20229;-87
2023/12/18 10:32:42;;;;;;;5.53;4.57;;;;;;;;;;5041039;28;20234;-82
2023/12/18 10:35:10;;;;;;;5.65;5.05;;;;;;;;;;5040296;28;20293;-81
2023/12/18 10:37:39;;;;;;;6.07;5.57;;;;;;;;;;5073190;28;20209;-80
2023/12/18 10:40:11;;;;;;;6.18;5.57;;;;;;;;;;5078771;28;20203;-81
2023/12/18 10:42:41;;;;;;;5.75;4.68;;;;;;;;;;5080710;28;20254;-81
2023/12/18 10:45:09;;;;;;;5.40;4.90;;;;;;;;;;5080241;28;20634;-79
2023/12/18 10:47:37;;;;;;;4.88;4.47;;;;;;;;;;5080511;28;20303;-79
2023/12/18 10:50:07;;;;;;;7.70;5.28;;;;;;;;;;5079930;28;20201;-80
2023/12/18 10:52:34;;;;;;;5.45;4.95;;;;;;;;;;5079654;28;20205;-81
2023/12/18 10:55:03;;;;;;;5.35;4.80;;;;;;;;;;5079561;28;20578;-81
2023/12/18 10:57:34;;;;;;;5.93;5.32;;;;;;;;;;5063126;28;20226;-80
2023/12/18 11:00:01;;;;;;;6.00;5.38;;;;;;;;;;5059515;28;20186;-80
2023/12/18 11:02:29;;;;;;;4.97;4.53;;;;;;;;;;5059541;28;20225;-81
2023/12/18 11:04:57;;;;;;;5.30;4.80;;;;;;;;;;5059782;28;20197;-80
2023/12/18 11:07:25;;;;;;;6.25;5.65;;;;;;;;;;5059688;28;20225;-80
2023/12/18 11:09:53;;;;;;;6.72;5.82;;;;;;;;;;5059919;28;20223;-81
2023/12/18 11:12:21;;;;;;;7.65;5.90;;;;;;;;;;5059683;28;20201;-80
2023/12/18 11:15:02;;;;;;;6.35;5.63;;;;;;;;;;5059899;28;20609;-80
2023/12/18 11:17:39;;;;;;;7.25;6.00;;;;;;;;;;5059851;28;20256;-80
2023/12/18 11:20:11;;;;;;;7.22;6.20;;;;;;;;;;5058947;28;20192;-80
2023/12/18 11:22:46;;;;;;;6.07;5.47;;;;;;;;;;5058731;28;20186;-80
2023/12/18 11:25:14;;;;;;;6.07;5.47;;;;;;;;;;5060020;28;20177;-80
2023/12/18 11:27:43;;;;;;;6.60;5.97;;;;;;;;;;5059133;28;20232;-81
2023/12/18 11:30:28;;;;;;;8.05;6.05;;;;;;;;;;5060031;28;20224;-81
2023/12/18 11:32:56;;;;;;;6.32;5.68;;;;;;;;;;5059792;28;20182;-80
2023/12/18 11:35:29;;;;;;;5.78;5.10;;;;;;;;;;5059690;28;20236;-80
2023/12/18 11:38:03;;;;;;;4.88;3.97;;;;;;;;;;5060798;28;20229;-81
2023/12/18 11:40:40;;;;;;;5.25;4.60;;;;;;;;;;5060741;28;20185;-81
2023/12/18 11:43:09;;;;;;;7.40;5.25;;;;;;;;;;5060652;28;20576;-79
2023/12/18 11:45:41;;;;;;;6.55;5.10;;;;;;;;;;5059868;28;20208;-81
2023/12/18 11:48:13;;;;;;;4.20;3.80;;;;;;;;;;5040557;28;20224;-81
2023/12/18 11:50:42;;;;;;;5.32;4.38;;;;;;;;;;5040649;28;20186;-80
2023/12/18 11:53:20;;;;;;;4.00;3.70;;;;;;;;;;5060135;28;20274;-80
2023/12/18 11:55:51;;;;;;;5.43;4.00;;;;;;;;;;5060129;28;20212;-81
2023/12/18 11:58:20;;;;;;;5.40;4.88;;;;;;;;;;5060531;28;20226;-80
2023/12/18 12:00:49;;;;;;;5.55;4.78;;;;;;;;;;5059540;28;20633;-81
2023/12/18 12:03:17;;;;;;;5.05;4.55;;;;;;;;;;5059569;28;20209;-81
2023/12/18 12:05:45;;;;;;;5.93;5.32;;;;;;;;;;5059659;28;20208;-81
2023/12/18 12:08:13;;;;;;;6.13;5.40;;;;;;;;;;5059475;28;20668;-80
2023/12/18 12:10:43;;;;;;;6.35;5.43;;;;;;;;;;5075190;28;20570;-79
2023/12/18 12:13:18;;;;;;;6.30;4.75;;;;;;;;;;5078789;28;20295;-81
2023/12/18 12:15:55;;;;;;;7.55;5.45;;;;;;;;;;5060591;28;20217;-79
2023/12/18 12:18:23;;;;;;;5.57;4.70;;;;;;;;;;5058556;28;20221;-81
2023/12/18 12:20:51;;;;;;;3.95;3.65;;;;;;;;;;5058362;28;20202;-80
2023/12/18 12:23:18;;;;;;;5.82;5.32;;;;;;;;;;5058567;28;20201;-80
2023/12/18 12:25:47;;;;;;;5.50;5.00;;;;;;;;;;5057718;28;20296;-79
2023/12/18 12:28:15;;;;;;;5.85;5.25;;;;;;;;;;5057748;28;20229;-79
2023/12/18 12:30:44;;;;;;;4.93;4.15;;;;;;;;;;5058372;28;20240;-81
2023/12/18 12:33:13;;;;;;;4.40;4.00;;;;;;;;;;5058398;28;20733;-79
2023/12/18 12:35:42;;;;;;;6.18;5.53;;;;;;;;;;5058509;28;20212;-81
2023/12/18 12:38:10;;;;;;;4.72;4.20;;;;;;;;;;5058901;28;20217;-81
2023/12/18 12:40:41;;;;;;;5.80;5.20;;;;;;;;;;5057782;28;20204;-80
2023/12/18 12:43:10;;;;;;;6.53;5.57;;;;;;;;;;5057732;28;20257;-81
2023/12/18 12:45:38;;;;;;;6.00;5.40;;;;;;;;;;5057545;28;20252;-81
2023/12/18 12:48:08;;;;;;;5.65;5.05;;;;;;;;;;5060044;28;20235;-81
2023/12/18 12:50:40;;;;;;;5.97;5.38;;;;;;;;;;5061322;28;20201;-81
2023/12/18 12:53:09;;;;;;;6.47;5.97;;;;;;;;;;5061133;28;20638;-81
2023/12/18 12:55:37;;;;;;;6.65;4.97;;;;;;;;;;5061436;28;20202;-81
2023/12/18 12:58:06;;;;;;;5.65;5.00;;;;;;;;;;5062775;28;20640;-80
2023/12/18 13:00:33;;;;;;;5.43;4.93;;;;;;;;;;5063322;28;20720;-80
2023/12/18 13:03:01;;;;;;;6.03;5.45;;;;;;;;;;5062216;28;20289;-80
2023/12/18 13:05:29;;;;;;;6.32;4.97;;;;;;;;;;5062794;28;20234;-80
2023/12/18 13:07:58;;;;;;;6.35;5.75;;;;;;;;;;5062772;28;20229;-80
2023/12/18 13:10:26;;;;;;;6.75;6.03;;;;;;;;;;5062568;28;20204;-82
2023/12/18 13:12:54;;;;;;;6.60;5.82;;;;;;;;;;5062582;28;20233;-81
2023/12/18 13:15:22;;;;;;;5.90;5.30;;;;;;;;;;5068357;28;20565;-79
2023/12/18 13:17:49;;;;;;;6.60;5.65;;;;;;;;;;5072934;28;20217;-81
2023/12/18 13:20:20;;;;;;;6.60;5.40;;;;;;;;;;5062654;28;20811;-79
2023/12/18 13:22:47;;;;;;;7.53;6.15;;;;;;;;;;5062232;28;20276;-80
2023/12/18 13:25:17;;;;;;;6.93;6.18;;;;;;;;;;5062175;28;20260;-80
2023/12/18 13:27:44;;;;;;;6.82;6.13;;;;;;;;;;5061613;28;20240;-80
2023/12/18 13:30:12;;;;;;;6.38;5.72;;;;;;;;;;5062427;28;20198;-81
2023/12/18 13:32:40;;;;;;;6.70;6.00;;;;;;;;;;5062062;28;20727;-80
2023/12/18 13:35:08;;;;;;;7.78;6.95;;;;;;;;;;5061680;28;20269;-80
2023/12/18 13:37:36;;;;;;;8.05;7.00;;;;;;;;;;5061938;28;20285;-80
2023/12/18 13:40:05;;;;;;;8.25;6.57;;;;;;;;;;5061349;28;20205;-80
2023/12/18 13:42:34;;;;;;;6.35;5.72;;;;;;;;;;5060955;28;20198;-79
2023/12/18 13:45:02;;;;;;;6.28;5.68;;;;;;;;;;5061741;28;20301;-79
2023/12/18 13:47:30;;;;;;;6.75;6.07;;;;;;;;;;5061898;28;20218;-81
2023/12/18 13:49:58;;;;;;;7.18;6.50;;;;;;;;;;5061834;28;20237;-79
2023/12/18 13:52:26;;;;;;;8.27;6.72;;;;;;;;;;5061683;28;20208;-80
2023/12/18 13:54:53;;;;;;;7.38;6.22;;;;;;;;;;5061503;28;20206;-81
2023/12/18 13:57:21;;;;;;;6.45;5.85;;;;;;;;;;5062167;28;20232;-80
2023/12/18 13:59:51;;;;;;;6.43;5.60;;;;;;;;;;5060403;28;20197;-81
2023/12/18 14:02:18;;;;;;;8.27;7.47;;;;;;;;;;5061042;28;20201;-80
2023/12/18 14:04:46;;;;;;;6.68;6.00;;;;;;;;;;5061388;28;20425;-79
2023/12/18 14:07:13;;;;;;;6.85;6.15;;;;;;;;;;5060713;28;20228;-80
2023/12/18 14:09:41;;;;;;;7.80;7.05;;;;;;;;;;5061650;28;20312;-80
2023/12/18 14:12:09;;;;;;;5.88;5.15;;;;;;;;;;5061249;28;20217;-80
2023/12/18 14:14:37;;;;;;;6.00;5.50;;;;;;;;;;5062269;28;20210;-80
2023/12/18 14:17:06;;;;;;;6.55;5.85;;;;;;;;;;5061418;28;20229;-79
2023/12/18 14:19:34;;;;;;;6.97;6.20;;;;;;;;;;5061524;28;20229;-80
2023/12/18 14:22:01;;;;;;;5.88;5.28;;;;;;;;;;5062188;28;20275;-81
2023/12/18 14:24:29;;;;;;;7.90;5.95;;;;;;;;;;5061348;28;20204;-80
2023/12/18 14:26:57;;;;;;;8.55;6.93;;;;;;;;;;5061216;28;20778;-78
2023/12/18 14:29:24;;;;;;;8.98;7.05;;;;;;;;;;5061438;28;20226;-80
2023/12/18 14:31:51;;;;;;;8.52;6.68;;;;;;;;;;5060449;28;20205;-79
2023/12/18 14:34:20;;;;;;;8.18;6.57;;;;;;;;;;5061267;28;20646;-78
2023/12/18 14:36:48;;;;;;;7.00;5.13;;;;;;;;;;5061806;28;20309;-80
2023/12/18 14:39:15;;;;;;;5.63;5.03;;;;;;;;;;5061866;28;20204;-79
2023/12/18 14:41:43;;;;;;;5.18;4.72;;;;;;;;;;5062026;28;20232;-80
2023/12/18 14:44:10;;;;;;;6.43;5.65;;;;;;;;;;5061228;28;20208;-80
2023/12/18 14:46:37;;;;;;;5.30;4.80;;;;;;;;;;5061169;28;20966;-80
2023/12/18 14:49:05;;;;;;;5.60;5.10;;;;;;;;;;5060875;28;20320;-79
2023/12/18 14:51:34;;;;;;;5.70;5.20;;;;;;;;;;5060931;28;20240;-80
2023/12/18 14:54:01;;;;;;;6.63;5.93;;;;;;;;;;5060963;28;20205;-80
2023/12/18 14:56:28;;;;;;;9.65;7.32;;;;;;;;;;5060619;28;20750;-79
2023/12/18 14:58:56;;;;;;;7.50;6.75;;;;;;;;;;5060796;28;20201;-80
2023/12/18 15:01:23;;;;;;;8.25;7.13;;;;;;;;;;5066282;28;20642;-80
2023/12/18 15:03:53;;;;;;;6.88;6.18;;;;;;;;;;5081388;28;20273;-80
2023/12/18 15:06:21;;;;;;;10.73;7.65;;;;;;;;;;5081367;28;20276;-79
2023/12/18 15:08:51;;;;;;;8.60;6.93;;;;;;;;;;5070328;28;20231;-79
2023/12/18 15:11:18;;;;;;;6.95;5.65;;;;;;;;;;5060111;28;20205;-80
2023/12/18 15:13:46;;;;;;;5.47;4.63;;;;;;;;;;5061024;28;20216;-78
2023/12/18 15:16:13;;;;;;;7.70;6.28;;;;;;;;;;5059584;28;20300;-79